createdAt,value
2022-10-21T00:02:16.758Z,7.50
2022-10-21T00:04:43.607Z,7.40
2022-10-21T00:07:12.956Z,7.40
2022-10-21T00:09:39.705Z,7.40
2022-10-21T00:12:06.459Z,7.40
2022-10-21T00:14:35.493Z,7.40
2022-10-21T00:17:02.267Z,7.40
2022-10-21T00:19:29.090Z,7.40
2022-10-21T00:21:55.853Z,7.40
2022-10-21T00:24:22.624Z,7.50
2022-10-21T00:26:52.265Z,7.40
2022-10-21T00:29:19.143Z,7.40
2022-10-21T00:31:45.924Z,7.30
2022-10-21T00:34:15.103Z,7.30
2022-10-21T00:36:44.400Z,7.30
2022-10-21T00:39:13.258Z,7.30
2022-10-21T00:41:42.236Z,7.30
2022-10-21T00:44:12.108Z,7.20
2022-10-21T00:46:47.481Z,7.20
2022-10-21T00:50:00.598Z,7.20
2022-10-21T00:52:31.983Z,7.10
2022-10-21T00:54:59.207Z,7.10
2022-10-21T00:57:28.328Z,7.10
2022-10-21T00:59:58.044Z,7.10
2022-10-21T01:02:24.820Z,7.10
2022-10-21T01:04:52.818Z,7.10
2022-10-21T01:07:19.651Z,7.00
2022-10-21T01:09:46.398Z,7.00
2022-10-21T01:12:34.794Z,6.90
2022-10-21T01:15:12.509Z,6.90
2022-10-21T01:17:52.317Z,6.80
2022-10-21T01:20:38.262Z,6.80
2022-10-21T01:23:20.128Z,6.80
2022-10-21T01:26:08.370Z,6.70
2022-10-21T01:28:52.685Z,6.70
2022-10-21T01:31:30.582Z,6.70
2022-10-21T01:34:20.291Z,6.60
2022-10-21T01:36:57.646Z,6.60
2022-10-21T01:39:29.109Z,6.60
2022-10-21T01:44:46.094Z,6.40
2022-10-21T01:47:18.091Z,6.40
2022-10-21T01:49:52.642Z,6.40
2022-10-21T01:52:19.486Z,6.40
2022-10-21T01:54:50.939Z,6.40
2022-10-21T01:57:18.432Z,6.30
2022-10-21T01:59:48.210Z,6.30
2022-10-21T02:02:18.288Z,6.30
2022-10-21T02:04:45.169Z,6.20
2022-10-21T02:07:11.908Z,6.20
2022-10-21T02:09:40.892Z,6.10
2022-10-21T02:12:07.712Z,6.10
2022-10-21T02:14:46.367Z,6.10
2022-10-21T02:17:17.706Z,6.10
2022-10-21T02:19:46.992Z,6.10
2022-10-21T02:22:15.026Z,6.10
2022-10-21T02:24:54.865Z,6.00
2022-10-21T02:27:23.929Z,6.00
2022-10-21T02:29:52.417Z,6.10
2022-10-21T02:32:51.174Z,6.00
2022-10-21T02:35:23.864Z,6.00
2022-10-21T02:37:59.920Z,6.00
2022-10-21T02:40:30.178Z,6.00
2022-10-21T02:43:09.495Z,6.00
2022-10-21T02:45:37.173Z,6.00
2022-10-21T02:48:04.177Z,6.00
2022-10-21T02:50:30.958Z,6.00
2022-10-21T02:52:57.894Z,6.00
2022-10-21T02:55:24.730Z,5.90
2022-10-21T02:57:51.467Z,5.90
2022-10-21T03:00:18.269Z,5.90
2022-10-21T03:02:45.079Z,5.90
2022-10-21T03:05:14.108Z,5.90
2022-10-21T03:07:41.618Z,5.90
2022-10-21T03:10:08.936Z,5.90
2022-10-21T03:12:37.874Z,5.80
2022-10-21T03:15:07.548Z,5.90
2022-10-21T03:17:34.352Z,5.90
2022-10-21T03:20:03.251Z,5.90
2022-10-21T03:22:30.001Z,5.90
2022-10-21T03:24:56.753Z,5.90
2022-10-21T03:27:25.984Z,5.90
2022-10-21T03:29:55.250Z,5.90
2022-10-21T03:32:24.400Z,5.90
2022-10-21T03:34:51.133Z,5.80
2022-10-21T03:37:17.928Z,5.80
2022-10-21T03:39:49.286Z,5.80
2022-10-21T03:42:16.085Z,5.80
2022-10-21T03:44:42.827Z,5.80
2022-10-21T03:47:09.699Z,5.80
2022-10-21T03:49:38.883Z,5.70
2022-10-21T03:52:07.798Z,5.70
2022-10-21T03:54:34.601Z,5.70
2022-10-21T03:57:03.688Z,5.70
2022-10-21T03:59:30.442Z,5.60
2022-10-21T04:01:59.940Z,5.60
2022-10-21T04:04:26.719Z,5.60
2022-10-21T04:06:53.460Z,5.60
2022-10-21T04:09:20.231Z,5.60
2022-10-21T04:11:46.981Z,5.60
2022-10-21T04:14:16.080Z,5.50
2022-10-21T04:16:42.951Z,5.50
2022-10-21T04:19:10.482Z,5.50
2022-10-21T04:21:41.878Z,5.50
2022-10-21T04:24:08.643Z,5.50
2022-10-21T04:26:37.864Z,5.50
2022-10-21T04:29:07.149Z,5.30
2022-10-21T04:31:34.110Z,5.40
2022-10-21T04:34:00.954Z,5.40
2022-10-21T04:36:27.717Z,5.40
2022-10-21T04:38:56.919Z,5.40
2022-10-21T04:41:23.687Z,5.40
2022-10-21T04:43:50.429Z,5.40
2022-10-21T04:46:17.308Z,5.40
2022-10-21T04:48:46.294Z,5.40
2022-10-21T04:51:13.119Z,5.40
2022-10-21T04:53:42.407Z,5.40
2022-10-21T04:56:09.189Z,5.50
2022-10-21T04:58:35.953Z,5.50
2022-10-21T05:01:03.039Z,5.50
2022-10-21T05:03:32.071Z,5.50
2022-10-21T05:05:58.861Z,5.50
2022-10-21T05:08:28.120Z,5.50
2022-10-21T05:11:03.776Z,5.50
2022-10-21T05:13:30.693Z,5.50
2022-10-21T05:16:03.784Z,5.40
2022-10-21T05:18:30.838Z,5.50
2022-10-21T05:20:58.333Z,5.50
2022-10-21T05:23:25.923Z,5.40
2022-10-21T05:25:52.761Z,5.40
2022-10-21T05:28:19.986Z,5.40
2022-10-21T05:30:46.813Z,5.40
2022-10-21T05:33:16.215Z,5.40
2022-10-21T05:35:43.005Z,5.30
2022-10-21T05:38:11.969Z,5.30
2022-10-21T05:40:38.795Z,5.30
2022-10-21T05:43:05.549Z,5.30
2022-10-21T05:45:32.306Z,5.30
2022-10-21T05:48:03.573Z,5.30
2022-10-21T05:50:30.313Z,5.30
2022-10-21T05:52:59.750Z,5.40
2022-10-21T05:55:26.573Z,5.40
2022-10-21T05:57:53.450Z,5.40
2022-10-21T06:00:20.265Z,5.40
2022-10-21T06:02:47.086Z,5.40
2022-10-21T06:05:14.068Z,5.50
2022-10-21T06:07:41.219Z,5.50
2022-10-21T06:10:12.213Z,5.50
2022-10-21T06:12:39.153Z,5.40
2022-10-21T06:15:06.299Z,5.40
2022-10-21T06:17:33.419Z,5.40
2022-10-21T06:20:01.739Z,5.40
2022-10-21T06:22:29.075Z,5.40
2022-10-21T06:24:55.812Z,5.40
2022-10-21T06:27:22.571Z,5.30
2022-10-21T06:29:49.452Z,5.40
2022-10-21T06:32:16.285Z,5.40
2022-10-21T06:34:43.016Z,5.30
2022-10-21T06:37:09.814Z,5.40
2022-10-21T06:39:36.550Z,5.40
2022-10-21T06:42:05.801Z,5.40
2022-10-21T06:44:32.980Z,5.40
2022-10-21T06:46:59.833Z,5.40
2022-10-21T06:49:26.675Z,5.50
2022-10-21T06:51:53.432Z,5.50
2022-10-21T06:54:20.205Z,5.50
2022-10-21T06:56:46.983Z,5.60
2022-10-21T06:59:16.325Z,5.60
2022-10-21T07:01:59.093Z,5.60
2022-10-21T07:04:29.652Z,5.60
2022-10-21T07:06:56.422Z,5.60
2022-10-21T07:09:23.318Z,5.70
2022-10-21T07:11:50.293Z,5.80
2022-10-21T07:14:17.159Z,5.80
2022-10-21T07:16:44.094Z,5.80
2022-10-21T07:25:47.588Z,5.90
2022-10-21T07:28:14.409Z,5.90
2022-10-21T07:30:49.876Z,6.00
2022-10-21T07:33:16.618Z,6.00
2022-10-21T07:35:43.357Z,6.10
2022-10-21T07:38:12.296Z,6.10
2022-10-21T07:40:40.464Z,6.10
2022-10-21T07:43:07.456Z,6.20
2022-10-21T07:45:34.656Z,6.20
2022-10-21T07:48:01.441Z,6.20
2022-10-21T07:50:28.185Z,6.30
2022-10-21T07:53:03.774Z,6.30
2022-10-21T07:55:35.592Z,6.30
2022-10-21T07:58:02.627Z,6.30
2022-10-21T08:00:29.400Z,6.40
2022-10-21T08:02:56.514Z,6.40
2022-10-21T08:05:23.377Z,6.50
2022-10-21T08:08:10.381Z,6.50
2022-10-21T08:10:51.612Z,6.50
2022-10-21T08:13:18.639Z,6.60
2022-10-21T08:15:46.606Z,6.60
2022-10-21T08:18:13.397Z,6.60
2022-10-21T08:20:41.149Z,6.70
2022-10-21T08:23:08.065Z,6.70
2022-10-21T08:25:35.177Z,6.70
2022-10-21T08:28:02.975Z,6.70
2022-10-21T08:30:31.713Z,6.70
2022-10-21T08:33:55.224Z,6.80
2022-10-21T08:36:29.695Z,6.90
2022-10-21T08:39:02.486Z,6.90
2022-10-21T08:41:32.278Z,7.00
2022-10-21T08:44:26.607Z,7.10
2022-10-21T08:47:17.235Z,7.10
2022-10-21T08:50:08.533Z,7.10
2022-10-21T08:52:58.094Z,7.10
2022-10-21T08:55:54.668Z,7.20
2022-10-21T08:58:28.779Z,7.20
2022-10-21T09:01:42.700Z,7.20
2022-10-21T09:04:22.529Z,7.30
2022-10-21T09:07:07.350Z,7.40
2022-10-21T09:09:52.936Z,7.50
2022-10-21T09:12:50.090Z,7.40
2022-10-21T09:15:35.270Z,7.50
2022-10-21T09:18:44.437Z,7.60
2022-10-21T09:21:19.787Z,7.60
2022-10-21T09:24:04.220Z,7.70
2022-10-21T09:26:36.847Z,7.80
2022-10-21T09:29:15.839Z,7.80
2022-10-21T09:32:02.982Z,7.90
2022-10-21T09:34:47.268Z,7.90
2022-10-21T09:37:35.380Z,8.00
2022-10-21T09:40:07.978Z,8.00
2022-10-21T09:42:46.871Z,8.10
2022-10-21T09:45:34.150Z,8.10
2022-10-21T09:48:19.680Z,8.20
2022-10-21T09:50:48.586Z,8.20
2022-10-21T09:53:22.670Z,8.20
2022-10-21T09:55:56.172Z,8.20
2022-10-21T09:58:29.619Z,8.20
2022-10-21T10:00:58.952Z,8.30
2022-10-21T10:03:45.984Z,8.30
2022-10-21T10:06:15.032Z,8.40
2022-10-21T10:09:20.908Z,8.40
2022-10-21T10:11:58.236Z,8.50
2022-10-21T10:14:34.698Z,8.50
2022-10-21T10:18:02.104Z,8.60
2022-10-21T10:20:38.219Z,8.60
2022-10-21T10:23:04.940Z,8.70
2022-10-21T10:25:33.036Z,8.70
2022-10-21T10:28:13.017Z,8.70
2022-10-21T10:30:52.779Z,8.80
2022-10-21T10:33:27.852Z,8.90
2022-10-21T10:35:59.054Z,8.90
2022-10-21T10:38:59.817Z,9.00
2022-10-21T10:41:35.488Z,8.90
2022-10-21T10:44:09.130Z,9.10
2022-10-21T10:46:38.520Z,9.10
2022-10-21T10:49:14.304Z,9.10
2022-10-21T10:51:42.569Z,9.20
2022-10-21T10:54:09.274Z,9.20
2022-10-21T10:56:50.196Z,9.30
2022-10-21T10:59:39.929Z,9.30
2022-10-21T11:02:09.962Z,9.30
2022-10-21T11:05:16.082Z,9.30
2022-10-21T11:07:50.360Z,9.50
2022-10-21T11:10:40.245Z,9.50
2022-10-21T11:13:17.635Z,9.60
2022-10-21T11:16:22.157Z,9.50
2022-10-21T11:18:51.959Z,9.50
2022-10-21T11:21:44.895Z,9.50
2022-10-21T11:24:17.208Z,9.60
2022-10-21T11:27:04.839Z,9.60
2022-10-21T11:30:14.900Z,9.60
2022-10-21T11:32:56.628Z,9.70
2022-10-21T11:35:42.697Z,9.70
2022-10-21T11:38:15.486Z,9.70
2022-10-21T11:40:54.473Z,9.80
2022-10-21T11:43:21.350Z,9.80
2022-10-21T11:46:09.533Z,9.80
2022-10-21T11:49:11.744Z,9.80
2022-10-21T11:51:59.451Z,9.80
2022-10-21T11:55:08.980Z,9.90
2022-10-21T11:57:46.500Z,9.90
2022-10-21T12:00:20.761Z,9.90
2022-10-21T12:03:06.770Z,9.90
2022-10-21T12:05:42.072Z,10.00
2022-10-21T12:08:48.281Z,10.00
2022-10-21T12:11:37.561Z,10.00
2022-10-21T12:14:30.911Z,10.10
2022-10-21T12:17:11.712Z,10.00
2022-10-21T12:19:39.250Z,10.00
2022-10-21T12:22:15.469Z,10.10
2022-10-21T12:25:00.766Z,10.20
2022-10-21T12:28:00.874Z,10.20
2022-10-21T12:30:56.644Z,10.20
2022-10-21T12:33:42.235Z,10.30
2022-10-21T12:36:29.592Z,10.20
2022-10-21T12:38:59.338Z,10.30
2022-10-21T12:41:49.055Z,10.30
2022-10-21T12:44:23.796Z,10.30
2022-10-21T12:47:01.092Z,10.30
2022-10-21T12:49:32.908Z,10.30
2022-10-21T12:52:02.768Z,10.40
2022-10-21T12:54:51.362Z,10.30
2022-10-21T12:57:26.642Z,10.40
2022-10-21T13:00:14.410Z,10.40
2022-10-21T13:03:07.948Z,10.30
2022-10-21T13:05:37.673Z,10.40
2022-10-21T13:08:42.568Z,10.40
2022-10-21T13:11:18.531Z,10.40
2022-10-21T13:13:46.323Z,10.40
2022-10-21T13:16:18.274Z,10.40
2022-10-21T13:18:51.592Z,10.40
2022-10-21T13:21:37.450Z,10.40
2022-10-21T13:24:13.528Z,10.40
2022-10-21T13:26:57.241Z,10.40
2022-10-21T13:29:46.846Z,10.50
2022-10-21T13:32:25.841Z,10.50
2022-10-21T13:35:19.443Z,10.50
2022-10-21T13:38:26.887Z,10.60
2022-10-21T13:41:03.817Z,10.60
2022-10-21T13:43:41.931Z,10.60
2022-10-21T13:46:55.360Z,10.60
2022-10-21T13:49:48.662Z,10.60
2022-10-21T13:52:27.816Z,10.60
2022-10-21T13:55:07.604Z,10.60
2022-10-21T13:57:36.093Z,10.60
2022-10-21T14:00:08.210Z,10.70
2022-10-21T14:02:37.369Z,10.70
2022-10-21T14:05:04.350Z,10.70
2022-10-21T14:07:31.069Z,10.70
2022-10-21T14:10:00.174Z,10.70
2022-10-21T14:12:30.127Z,10.80
2022-10-21T14:14:57.586Z,10.80
2022-10-21T14:17:25.686Z,10.80
2022-10-21T14:19:54.479Z,10.80
2022-10-21T14:22:25.537Z,10.80
2022-10-21T14:25:01.820Z,10.80
2022-10-21T14:27:32.906Z,10.80
2022-10-21T14:30:05.245Z,10.80
2022-10-21T14:32:32.027Z,10.80
2022-10-21T14:35:01.808Z,10.80
2022-10-21T14:37:43.344Z,10.80
2022-10-21T14:40:21.703Z,10.80
2022-10-21T14:42:52.374Z,10.80
2022-10-21T14:45:33.121Z,10.80
2022-10-21T14:48:18.093Z,10.90
2022-10-21T14:50:51.165Z,10.90
2022-10-21T14:53:21.943Z,10.90
2022-10-21T14:55:48.871Z,10.90
2022-10-21T14:58:23.338Z,10.90
2022-10-21T15:00:57.346Z,10.90
2022-10-21T15:03:47.274Z,10.90
2022-10-21T15:06:28.868Z,10.90
2022-10-21T15:09:16.886Z,10.90
2022-10-21T15:11:47.246Z,10.90
2022-10-21T15:14:16.519Z,10.90
2022-10-21T15:16:56.009Z,10.90
2022-10-21T15:19:38.150Z,10.90
2022-10-21T15:22:05.289Z,10.90
2022-10-21T15:24:44.087Z,10.90
2022-10-21T15:27:36.655Z,10.90
2022-10-21T15:30:16.021Z,10.90
2022-10-21T15:32:42.778Z,10.90
2022-10-21T15:35:21.013Z,10.90
2022-10-21T15:37:49.479Z,10.80
2022-10-21T15:40:17.866Z,10.80
2022-10-21T15:42:45.337Z,10.80
2022-10-21T15:45:19.770Z,10.80
2022-10-21T15:47:53.910Z,10.80
2022-10-21T15:50:27.418Z,10.80
2022-10-21T15:55:25.932Z,10.80
2022-10-21T15:57:52.689Z,10.80
2022-10-21T16:00:22.539Z,10.80
2022-10-21T16:02:51.597Z,10.80
2022-10-21T16:05:23.762Z,10.80
2022-10-21T16:07:51.299Z,10.70
2022-10-21T16:10:26.013Z,10.70
2022-10-21T16:12:52.860Z,10.70
2022-10-21T16:15:19.810Z,10.70
2022-10-21T16:17:48.556Z,10.70
2022-10-21T16:20:18.458Z,10.70
2022-10-21T16:22:45.311Z,10.60
2022-10-21T16:25:13.978Z,10.60
2022-10-21T16:27:55.136Z,10.60
2022-10-21T16:30:36.854Z,10.60
2022-10-21T16:33:05.989Z,10.60
2022-10-21T16:35:32.777Z,10.60
2022-10-21T16:38:01.991Z,10.60
2022-10-21T16:40:31.878Z,10.60
2022-10-21T16:43:00.880Z,10.60
2022-10-21T16:45:29.023Z,10.60
2022-10-21T16:47:59.413Z,10.50
2022-10-21T16:50:45.891Z,10.50
2022-10-21T16:53:24.269Z,10.50
2022-10-21T16:58:53.661Z,10.50
2022-10-21T17:01:22.268Z,10.50
2022-10-21T17:03:49.130Z,10.50
2022-10-21T17:06:22.586Z,10.40
2022-10-21T17:08:52.410Z,10.40
2022-10-21T17:11:36.905Z,10.40
2022-10-21T17:14:04.597Z,10.40
2022-10-21T17:16:33.872Z,10.40
2022-10-21T17:19:00.632Z,10.40
2022-10-21T17:21:31.823Z,10.40
2022-10-21T17:23:59.634Z,10.30
2022-10-21T17:26:26.546Z,10.40
2022-10-21T17:28:53.931Z,10.30
2022-10-21T17:31:22.148Z,10.40
2022-10-21T17:33:52.451Z,10.40
2022-10-21T17:36:21.669Z,10.40
2022-10-21T17:38:48.433Z,10.40
2022-10-21T17:44:06.194Z,10.40
2022-10-21T17:46:35.163Z,10.40
2022-10-21T17:49:04.289Z,10.30
2022-10-21T17:51:31.056Z,10.30
2022-10-21T17:53:57.836Z,10.30
2022-10-21T17:56:24.678Z,10.30
2022-10-21T17:58:54.814Z,10.30
2022-10-21T18:01:22.658Z,10.30
2022-10-21T18:03:51.929Z,10.30
2022-10-21T18:06:18.859Z,10.30
2022-10-21T18:08:53.064Z,10.30
2022-10-21T18:11:24.937Z,10.30
2022-10-21T18:13:55.416Z,10.30
2022-10-21T18:16:23.573Z,10.30
2022-10-21T18:18:50.447Z,10.20
2022-10-21T18:21:18.982Z,10.20
2022-10-21T18:23:48.894Z,10.20
2022-10-21T18:26:19.406Z,10.20
2022-10-21T18:28:50.397Z,10.20
2022-10-21T18:31:20.896Z,10.20
2022-10-21T18:33:50.318Z,10.20
2022-10-21T18:36:17.459Z,10.20
2022-10-21T18:38:46.921Z,10.20
2022-10-21T18:41:20.540Z,10.20
2022-10-21T18:43:49.182Z,10.10
2022-10-21T18:46:16.006Z,10.20
2022-10-21T18:48:42.769Z,10.10
2022-10-21T18:51:10.352Z,10.10
2022-10-21T18:53:37.546Z,10.10
2022-10-21T18:56:05.793Z,10.10
2022-10-21T18:58:33.000Z,10.10
2022-10-21T19:00:59.907Z,10.10
2022-10-21T19:03:32.832Z,10.10
2022-10-21T19:06:23.900Z,10.10
2022-10-21T19:08:50.781Z,10.10
2022-10-21T19:11:22.331Z,10.10
2022-10-21T19:13:51.213Z,10.10
2022-10-21T19:16:17.953Z,10.10
2022-10-21T19:18:44.819Z,10.10
2022-10-21T19:21:14.278Z,10.10
2022-10-21T19:23:43.804Z,10.10
2022-10-21T19:26:18.745Z,10.10
2022-10-21T19:28:48.130Z,10.10
2022-10-21T19:31:21.464Z,10.10
2022-10-21T19:33:51.227Z,10.10
2022-10-21T19:36:17.956Z,10.10
2022-10-21T19:38:46.972Z,10.10
2022-10-21T19:41:17.438Z,10.10
2022-10-21T19:43:44.250Z,10.10
2022-10-21T19:46:14.874Z,10.10
2022-10-21T19:48:44.236Z,10.10
2022-10-21T19:51:17.733Z,10.10
2022-10-21T19:53:47.785Z,10.10
2022-10-21T19:56:14.756Z,10.10
2022-10-21T19:58:43.620Z,10.10
2022-10-21T20:01:11.732Z,10.10
2022-10-21T20:03:42.802Z,10.10
2022-10-21T20:06:11.150Z,10.10
2022-10-21T20:08:42.531Z,10.10
2022-10-21T20:11:11.482Z,10.10
2022-10-21T20:13:38.327Z,10.10
2022-10-21T20:16:05.325Z,10.10
2022-10-21T20:18:32.074Z,10.10
2022-10-21T20:21:05.281Z,10.10
2022-10-21T20:23:32.085Z,10.10
2022-10-21T20:26:01.628Z,10.10
2022-10-21T20:28:31.739Z,10.10
2022-10-21T20:31:09.361Z,10.10
2022-10-21T20:33:38.291Z,10.10
2022-10-21T20:36:10.078Z,10.10
2022-10-21T20:38:36.927Z,10.10
2022-10-21T20:41:08.516Z,10.10
2022-10-21T20:43:38.689Z,10.10
2022-10-21T20:46:07.335Z,10.10
2022-10-21T20:48:36.948Z,10.10
2022-10-21T20:51:05.276Z,10.10
2022-10-21T20:53:32.023Z,10.10
2022-10-21T20:55:59.172Z,10.10
2022-10-21T20:58:25.990Z,10.10
2022-10-21T21:00:54.974Z,10.00
2022-10-21T21:03:27.451Z,10.00
2022-10-21T21:05:54.197Z,10.00
2022-10-21T21:08:21.130Z,10.10
2022-10-21T21:10:47.966Z,10.10
2022-10-21T21:13:14.729Z,10.10
2022-10-21T21:15:41.482Z,10.10
2022-10-21T21:18:11.522Z,10.10
2022-10-21T21:20:40.554Z,10.10
2022-10-21T21:23:07.309Z,10.10
2022-10-21T21:25:34.068Z,10.00
2022-10-21T21:28:03.041Z,10.00
2022-10-21T21:30:29.817Z,10.10
2022-10-21T21:32:56.589Z,10.00
2022-10-21T21:35:23.318Z,10.00
2022-10-21T21:37:50.254Z,10.00
2022-10-21T21:40:23.869Z,10.00
2022-10-21T21:42:50.664Z,10.00
2022-10-21T21:45:19.925Z,10.00
2022-10-21T21:47:46.727Z,10.00
2022-10-21T21:50:13.651Z,10.00
2022-10-21T21:52:41.659Z,10.00
2022-10-21T21:55:08.778Z,10.10
2022-10-21T21:57:38.043Z,10.00
2022-10-21T22:00:07.903Z,10.00
2022-10-21T22:02:34.652Z,9.90
2022-10-21T22:05:01.436Z,9.90
2022-10-21T22:07:28.180Z,9.90
2022-10-21T22:09:54.917Z,9.90
2022-10-21T22:12:23.929Z,9.90
2022-10-21T22:14:50.784Z,9.90
2022-10-21T22:17:17.519Z,9.90
2022-10-21T22:19:44.255Z,9.90
2022-10-21T22:22:11.169Z,9.90
2022-10-21T22:24:37.911Z,9.80
2022-10-21T22:27:04.833Z,9.80
2022-10-21T22:29:33.826Z,9.70
2022-10-21T22:32:03.093Z,9.70
2022-10-21T22:34:29.855Z,9.70
2022-10-21T22:36:59.080Z,9.70
2022-10-21T22:39:25.929Z,9.60
2022-10-21T22:41:52.661Z,9.60
2022-10-21T22:44:22.131Z,9.60
2022-10-21T22:46:49.725Z,9.60
2022-10-21T22:49:18.757Z,9.60
2022-10-21T22:51:47.758Z,9.60
2022-10-21T22:54:29.464Z,9.60
2022-10-21T22:57:01.436Z,9.70
2022-10-21T22:59:28.167Z,9.70
2022-10-21T23:01:57.069Z,9.80
2022-10-21T23:04:23.806Z,9.80
2022-10-21T23:06:50.591Z,9.80
2022-10-21T23:09:17.407Z,9.80
2022-10-21T23:11:44.382Z,9.80
2022-10-21T23:14:13.338Z,9.80
2022-10-21T23:16:40.087Z,9.90
2022-10-21T23:19:09.741Z,9.90
2022-10-21T23:21:36.851Z,9.90
2022-10-21T23:24:04.409Z,9.80
2022-10-21T23:26:33.748Z,9.80
2022-10-21T23:29:00.541Z,9.80
2022-10-21T23:31:29.835Z,9.80
2022-10-21T23:33:56.578Z,9.80
2022-10-21T23:36:23.475Z,9.90
2022-10-21T23:38:54.001Z,9.90
2022-10-21T23:41:20.761Z,9.90
2022-10-21T23:43:47.524Z,9.90
2022-10-21T23:46:14.408Z,9.90
2022-10-21T23:48:41.298Z,10.00
2022-10-21T23:51:08.035Z,10.00
2022-10-21T23:53:37.219Z,9.90
2022-10-21T23:56:04.513Z,9.90
2022-10-21T23:58:31.412Z,9.90
